Time;durP1;ratioP1;P1;durP2;ratioP2;P2;SDS_P1;SDS_P2;PMS_P1;PMS_P2;Temp;Humidity;BMP_temperature;BMP_pressure;BME280_temperature;BME280_humidity;BME280_pressure;Samples;Min_cycle;Max_cycle;Signal;HPM_P1;HPM_P2
2022/05/20 00:00:15;;;;;;;42.80;28.30;;;15.40;99.90;;;;;;5071999;28;20201;-61
2022/05/20 00:02:42;;;;;;;42.90;28.80;;;15.40;99.90;;;;;;5071984;28;20275;-61
2022/05/20 00:05:09;;;;;;;41.27;27.73;;;15.30;99.90;;;;;;5072330;28;20208;-61
2022/05/20 00:07:36;;;;;;;44.07;28.43;;;15.30;99.90;;;;;;5071733;28;20725;-62
2022/05/20 00:10:03;;;;;;;41.63;29.67;;;15.20;99.90;;;;;;5071953;28;20311;-61
2022/05/20 00:12:31;;;;;;;41.80;28.20;;;15.10;99.90;;;;;;5071893;28;20236;-61
2022/05/20 00:14:58;;;;;;;51.60;28.73;;;15.00;99.90;;;;;;5071290;28;20204;-61
2022/05/20 00:17:25;;;;;;;43.03;29.20;;;15.00;99.90;;;;;;5072144;28;20204;-59
2022/05/20 00:19:52;;;;;;;40.97;28.50;;;15.00;99.90;;;;;;5071729;28;20239;-61
2022/05/20 00:22:19;;;;;;;40.23;26.97;;;15.00;99.90;;;;;;5071734;28;20741;-61
2022/05/20 00:27:31;;;;;;;42.87;27.67;;;15.00;99.90;;;;;;5071403;28;20881;-61
2022/05/20 00:29:58;;;;;;;44.17;27.70;;;15.00;99.90;;;;;;5071772;28;20270;-62
2022/05/20 00:32:25;;;;;;;48.37;29.83;;;15.00;99.90;;;;;;5071840;28;20229;-62
2022/05/20 00:34:51;;;;;;;45.10;28.73;;;15.00;99.90;;;;;;5071555;28;20204;-61
2022/05/20 00:37:18;;;;;;;48.60;31.57;;;14.90;99.90;;;;;;5071118;28;20266;-62
2022/05/20 00:39:45;;;;;;;47.13;30.80;;;14.90;99.90;;;;;;5071569;28;20667;-62
2022/05/20 00:42:13;;;;;;;46.80;30.10;;;14.90;99.90;;;;;;5071629;28;20270;-62
2022/05/20 00:44:42;;;;;;;52.00;33.53;;;14.80;99.90;;;;;;5071850;28;20254;-61
2022/05/20 00:47:11;;;;;;;45.20;29.33;;;14.80;99.90;;;;;;5071151;28;20219;-61
2022/05/20 00:49:40;;;;;;;51.13;29.93;;;14.80;99.90;;;;;;5071550;28;20286;-61
2022/05/20 00:52:11;;;;;;;44.33;30.47;;;14.80;99.90;;;;;;5071367;28;20225;-62
2022/05/20 00:54:43;;;;;;;44.70;29.93;;;14.80;99.90;;;;;;5071756;28;20204;-62
2022/05/20 00:57:14;;;;;;;42.27;28.83;;;14.70;99.90;;;;;;5071353;28;20216;-62
2022/05/20 00:59:47;;;;;;;43.40;28.83;;;14.70;99.90;;;;;;5071556;28;20627;-62
2022/05/20 01:02:18;;;;;;;46.33;29.10;;;14.70;99.90;;;;;;5071466;28;20221;-62
2022/05/20 01:04:45;;;;;;;48.73;31.60;;;14.60;99.90;;;;;;5071384;28;20263;-62
2022/05/20 01:07:15;;;;;;;44.90;29.97;;;14.60;99.90;;;;;;5071025;28;20675;-62
2022/05/20 01:09:42;;;;;;;48.50;28.70;;;14.60;99.90;;;;;;5071416;28;20228;-62
2022/05/20 01:12:09;;;;;;;48.80;30.10;;;14.60;99.90;;;;;;5071188;28;20271;-62
2022/05/20 01:14:36;;;;;;;44.07;28.43;;;14.50;99.90;;;;;;5071255;28;20300;-62
2022/05/20 01:17:05;;;;;;;45.40;28.77;;;14.50;99.90;;;;;;5070914;28;20217;-60
2022/05/20 01:19:36;;;;;;;46.03;30.43;;;14.50;99.90;;;;;;5071043;28;20209;-61
2022/05/20 01:22:06;;;;;;;47.87;29.77;;;14.50;99.90;;;;;;5071288;28;20225;-61
2022/05/20 01:24:35;;;;;;;53.03;31.60;;;14.40;99.90;;;;;;5071228;28;20296;-62
2022/05/20 01:27:01;;;;;;;51.80;30.30;;;14.30;99.90;;;;;;5071163;28;20258;-61
2022/05/20 01:29:28;;;;;;;50.10;29.40;;;14.30;99.90;;;;;;5074848;28;20256;-62
2022/05/20 01:31:55;;;;;;;53.23;29.63;;;14.30;99.90;;;;;;5074671;28;20221;-62
2022/05/20 01:34:22;;;;;;;47.07;29.87;;;14.30;99.90;;;;;;5074925;28;20201;-61
2022/05/20 01:36:49;;;;;;;48.83;30.87;;;14.30;99.90;;;;;;5074458;28;20217;-61
2022/05/20 01:39:16;;;;;;;51.67;28.90;;;14.30;99.90;;;;;;5074669;28;20205;-61
2022/05/20 01:41:52;;;;;;;51.67;30.17;;;14.30;99.90;;;;;;5074298;28;20233;-62
2022/05/20 01:44:23;;;;;;;51.87;31.27;;;14.40;99.90;;;;;;5074552;28;20204;-62
2022/05/20 01:46:55;;;;;;;55.33;31.37;;;14.40;99.90;;;;;;5074271;28;20208;-62
2022/05/20 01:49:34;;;;;;;53.97;32.47;;;14.40;99.90;;;;;;5074672;28;20634;-62
2022/05/20 01:52:07;;;;;;;55.97;31.10;;;14.40;99.90;;;;;;5074485;28;20263;-62
2022/05/20 01:54:40;;;;;;;57.40;33.17;;;14.40;99.90;;;;;;5074540;28;20263;-62
2022/05/20 01:57:16;;;;;;;53.90;33.03;;;14.40;99.90;;;;;;5074294;28;20212;-62
2022/05/20 01:59:47;;;;;;;57.17;33.57;;;14.50;99.90;;;;;;5074330;28;20614;-62
2022/05/20 02:02:24;;;;;;;56.43;33.50;;;14.50;99.90;;;;;;5074178;28;20641;-62
2022/05/20 02:04:56;;;;;;;60.53;34.63;;;14.50;99.90;;;;;;5074144;28;20220;-62
2022/05/20 02:07:30;;;;;;;61.47;33.10;;;14.50;99.90;;;;;;5074143;28;20194;-62
2022/05/20 02:10:04;;;;;;;65.57;36.00;;;14.50;99.90;;;;;;5074205;28;20273;-61
2022/05/20 02:12:37;;;;;;;59.17;35.20;;;14.50;99.90;;;;;;5073839;28;20642;-62
2022/05/20 02:15:09;;;;;;;63.33;33.90;;;14.50;99.90;;;;;;5073863;28;20205;-62
2022/05/20 02:17:37;;;;;;;61.27;36.30;;;14.50;99.90;;;;;;5073747;28;20205;-61
2022/05/20 02:20:10;;;;;;;57.97;33.47;;;14.50;99.90;;;;;;5074024;28;20201;-62
2022/05/20 02:22:41;;;;;;;62.77;33.93;;;14.50;99.90;;;;;;5074181;28;20275;-62
2022/05/20 02:25:12;;;;;;;65.47;35.63;;;14.50;99.90;;;;;;5074214;28;20231;-62
2022/05/20 02:27:44;;;;;;;62.23;34.10;;;14.50;99.90;;;;;;5073442;28;20253;-61
2022/05/20 02:30:13;;;;;;;58.93;33.87;;;14.50;99.90;;;;;;5073921;28;20278;-62
2022/05/20 02:32:46;;;;;;;54.77;31.90;;;14.50;99.90;;;;;;5073736;28;20228;-61
2022/05/20 02:35:13;;;;;;;52.87;31.40;;;14.50;99.90;;;;;;5073830;28;20807;-62
2022/05/20 02:37:40;;;;;;;51.70;30.77;;;14.50;99.90;;;;;;5072936;28;20675;-62
2022/05/20 02:40:12;;;;;;;61.00;32.30;;;14.40;99.90;;;;;;5073667;28;20201;-62
2022/05/20 02:42:40;;;;;;;50.20;31.13;;;14.40;99.90;;;;;;5073179;28;20228;-62
2022/05/20 02:45:08;;;;;;;54.33;31.07;;;14.30;99.90;;;;;;5073534;28;20667;-62
2022/05/20 02:47:36;;;;;;;49.87;30.83;;;14.30;99.90;;;;;;5073187;28;20671;-60
2022/05/20 02:50:07;;;;;;;55.87;30.87;;;14.30;99.90;;;;;;5073250;28;20224;-62
2022/05/20 02:52:34;;;;;;;60.43;31.63;;;14.20;99.90;;;;;;5073397;28;20619;-62
2022/05/20 02:55:00;;;;;;;58.13;33.20;;;14.20;99.90;;;;;;5073107;28;20683;-61
2022/05/20 02:57:27;;;;;;;56.93;33.33;;;14.20;99.90;;;;;;5072816;28;20205;-62
2022/05/20 03:05:24;;;;;;;53.03;30.23;;;14.10;99.90;;;;;;5073176;28;20195;-61
2022/05/20 03:07:50;;;;;;;53.97;32.13;;;14.00;99.90;;;;;;5072899;28;20641;-62
2022/05/20 03:10:17;;;;;;;58.90;33.57;;;14.00;99.90;;;;;;5073092;28;20225;-62
2022/05/20 03:12:44;;;;;;;57.70;32.87;;;13.90;99.90;;;;;;5072844;28;20283;-61
2022/05/20 03:15:14;;;;;;;54.17;32.23;;;13.80;99.90;;;;;;5072887;28;20213;-62
2022/05/20 03:17:41;;;;;;;58.27;33.50;;;13.80;99.90;;;;;;5072313;28;20212;-61
2022/05/20 03:20:10;;;;;;;63.90;33.00;;;13.80;99.90;;;;;;5072741;28;20197;-61
2022/05/20 03:22:38;;;;;;;67.07;33.43;;;13.80;99.90;;;;;;5072774;28;20225;-61
2022/05/20 03:25:06;;;;;;;64.07;33.30;;;13.70;99.90;;;;;;5073057;28;20579;-61
2022/05/20 03:27:33;;;;;;;60.30;32.63;;;13.70;99.90;;;;;;5072269;28;20270;-61
2022/05/20 03:30:00;;;;;;;66.50;34.83;;;13.70;99.90;;;;;;5072511;28;20924;-62
2022/05/20 03:32:28;;;;;;;61.20;34.43;;;13.70;99.90;;;;;;5072628;28;20228;-61
2022/05/20 03:34:56;;;;;;;58.20;32.20;;;13.70;99.90;;;;;;5072210;28;20238;-61
2022/05/20 03:37:23;;;;;;;64.93;34.47;;;13.70;99.90;;;;;;5072370;28;20204;-61
2022/05/20 03:39:50;;;;;;;67.37;34.60;;;13.70;99.90;;;;;;5072468;28;20205;-61
2022/05/20 03:42:17;;;;;;;60.30;33.00;;;13.70;99.90;;;;;;5072206;28;20354;-61
2022/05/20 03:44:44;;;;;;;64.47;33.50;;;13.70;99.90;;;;;;5072188;28;20250;-61
2022/05/20 03:47:10;;;;;;;65.37;34.20;;;13.70;99.90;;;;;;5071885;28;20209;-62
2022/05/20 03:49:39;;;;;;;61.77;32.13;;;13.70;99.90;;;;;;5071629;28;20262;-61
2022/05/20 03:52:05;;;;;;;67.93;34.33;;;13.70;99.90;;;;;;5072502;28;20298;-64
2022/05/20 03:54:34;;;;;;;66.30;34.97;;;13.70;99.90;;;;;;5072429;28;20253;-61
2022/05/20 03:57:01;;;;;;;68.77;35.97;;;13.70;99.90;;;;;;5071616;28;20205;-62
2022/05/20 03:59:28;;;;;;;60.73;33.30;;;13.70;99.90;;;;;;5072214;28;20205;-62
2022/05/20 04:01:59;;;;;;;65.43;34.10;;;13.70;99.90;;;;;;5071742;28;20274;-62
2022/05/20 04:04:28;;;;;;;68.40;35.37;;;13.70;99.90;;;;;;5072377;28;20203;-61
2022/05/20 04:06:56;;;;;;;70.57;35.90;;;13.80;99.90;;;;;;5071653;28;20216;-62
2022/05/20 04:09:23;;;;;;;66.97;35.53;;;13.80;99.90;;;;;;5072031;28;20209;-61
2022/05/20 04:11:53;;;;;;;66.90;34.57;;;13.80;99.90;;;;;;5071628;28;20225;-61
2022/05/20 04:14:20;;;;;;;66.30;35.40;;;13.90;99.90;;;;;;5071891;28;20215;-61
2022/05/20 04:16:47;;;;;;;76.03;36.90;;;14.00;99.90;;;;;;5071599;28;20212;-61
2022/05/20 04:19:13;;;;;;;86.93;38.43;;;14.00;99.90;;;;;;5071908;28;20209;-61
2022/05/20 04:21:41;;;;;;;78.60;37.83;;;14.00;99.90;;;;;;5072655;28;20233;-61
2022/05/20 04:24:09;;;;;;;75.50;36.73;;;14.10;99.90;;;;;;5071610;28;20209;-61
2022/05/20 04:26:36;;;;;;;75.33;36.40;;;14.20;99.90;;;;;;5071487;28;20675;-61
2022/05/20 04:29:03;;;;;;;71.80;36.37;;;14.30;99.90;;;;;;5071581;28;20252;-61
2022/05/20 04:31:30;;;;;;;77.87;37.90;;;14.30;99.90;;;;;;5071997;28;20236;-62
2022/05/20 04:33:56;;;;;;;78.53;37.60;;;14.40;99.90;;;;;;5071893;28;20684;-61
2022/05/20 04:36:23;;;;;;;83.40;39.17;;;14.50;99.90;;;;;;5071487;28;20204;-62
2022/05/20 04:38:50;;;;;;;74.53;37.60;;;14.60;99.90;;;;;;5071883;28;20209;-61
2022/05/20 04:46:58;;;;;;;69.10;35.67;;;14.80;99.90;;;;;;5070384;28;20689;-62
2022/05/20 04:49:25;;;;;;;64.10;34.97;;;14.80;99.90;;;;;;5071594;28;20277;-62
2022/05/20 04:51:52;;;;;;;65.73;35.50;;;14.80;99.90;;;;;;5070969;28;20233;-62
2022/05/20 04:57:06;;;;;;;61.27;34.47;;;14.90;99.90;;;;;;5070778;28;20566;-62
2022/05/20 04:59:35;;;;;;;58.63;34.33;;;15.00;99.90;;;;;;5071424;28;20342;-61
2022/05/20 05:02:02;;;;;;;52.53;30.80;;;15.10;99.90;;;;;;5073253;28;20231;-61
2022/05/20 05:04:28;;;;;;;52.67;31.93;;;15.20;99.90;;;;;;5075034;28;20706;-61
2022/05/20 05:06:55;;;;;;;52.77;32.17;;;15.20;99.90;;;;;;5075066;28;20209;-61
2022/05/20 05:09:22;;;;;;;53.77;32.33;;;15.20;99.90;;;;;;5074828;28;20744;-61
2022/05/20 05:11:49;;;;;;;51.93;31.17;;;15.20;99.90;;;;;;5074999;28;20228;-61
2022/05/20 05:14:17;;;;;;;48.23;29.37;;;15.20;99.90;;;;;;5075098;28;20209;-61
2022/05/20 05:16:44;;;;;;;50.53;29.07;;;15.20;99.90;;;;;;5074745;28;20234;-61
2022/05/20 05:19:12;;;;;;;50.27;29.60;;;15.20;99.90;;;;;;5075115;28;20208;-61
2022/05/20 05:21:38;;;;;;;50.80;30.43;;;15.00;99.90;;;;;;5074939;28;20225;-61
2022/05/20 05:24:06;;;;;;;46.33;30.00;;;15.00;99.90;;;;;;5074740;28;20671;-61
2022/05/20 05:26:35;;;;;;;49.97;30.03;;;15.00;99.90;;;;;;5074201;28;20838;-61
2022/05/20 05:29:02;;;;;;;53.97;31.07;;;15.00;99.90;;;;;;5073010;28;20200;-65
2022/05/20 05:31:31;;;;;;;56.73;31.87;;;15.10;99.90;;;;;;5059906;28;20236;-64
2022/05/20 05:33:57;;;;;;;54.00;31.17;;;15.20;99.90;;;;;;5074157;28;20205;-64
2022/05/20 05:36:24;;;;;;;53.47;32.53;;;15.20;99.90;;;;;;5073677;28;20270;-64
2022/05/20 05:38:51;;;;;;;50.47;30.30;;;15.20;99.90;;;;;;5073841;28;20299;-65
2022/05/20 05:41:19;;;;;;;43.30;27.17;;;15.20;99.90;;;;;;5073941;28;20624;-63
2022/05/20 05:43:46;;;;;;;44.63;25.63;;;15.20;99.90;;;;;;5073484;28;20209;-62
2022/05/20 05:46:13;;;;;;;39.50;23.77;;;15.20;99.90;;;;;;5073732;28;20209;-64
2022/05/20 05:48:41;;;;;;;32.43;20.70;;;15.20;99.90;;;;;;5073760;28;20259;-63
2022/05/20 05:51:08;;;;;;;30.17;20.60;;;15.20;99.90;;;;;;5074080;28;20327;-63
2022/05/20 05:53:35;;;;;;;29.50;19.17;;;15.20;99.90;;;;;;5073922;28;20216;-63
2022/05/20 05:56:05;;;;;;;26.07;17.67;;;15.30;99.90;;;;;;5073155;28;20213;-62
2022/05/20 05:58:33;;;;;;;22.00;14.40;;;15.20;99.90;;;;;;5073546;28;20205;-63
2022/05/20 06:00:59;;;;;;;20.30;13.37;;;15.20;99.90;;;;;;5073317;28;20213;-63
2022/05/20 06:03:27;;;;;;;20.00;13.50;;;15.30;99.90;;;;;;5073850;28;20232;-64
2022/05/20 06:05:55;;;;;;;22.70;13.23;;;15.30;99.90;;;;;;5072978;28;20329;-64
2022/05/20 06:08:23;;;;;;;20.33;13.40;;;15.40;99.90;;;;;;5073663;28;20208;-64
2022/05/20 06:10:49;;;;;;;19.77;14.30;;;15.50;99.90;;;;;;5073053;28;20767;-62
2022/05/20 06:13:23;;;;;;;18.83;13.93;;;15.50;99.90;;;;;;5072212;28;20248;-63
2022/05/20 06:15:51;;;;;;;18.87;13.87;;;15.70;99.90;;;;;;5073456;28;20567;-62
2022/05/20 06:18:17;;;;;;;21.00;14.57;;;15.70;99.90;;;;;;5073224;28;20266;-64
2022/05/20 06:20:44;;;;;;;23.53;14.77;;;15.80;99.90;;;;;;5073320;28;20246;-64
2022/05/20 06:23:12;;;;;;;23.00;16.37;;;15.90;99.90;;;;;;5073092;28;21078;-62
2022/05/20 06:25:39;;;;;;;24.07;16.27;;;15.90;99.90;;;;;;5072965;28;20710;-64
2022/05/20 06:28:08;;;;;;;23.43;16.47;;;16.10;99.90;;;;;;5073210;28;20205;-61
2022/05/20 06:30:35;;;;;;;25.60;15.13;;;16.10;99.90;;;;;;5072788;28;20225;-62
2022/05/20 06:33:02;;;;;;;23.23;14.27;;;16.20;99.90;;;;;;5073005;28;20240;-62
2022/05/20 06:41:01;;;;;;;23.67;14.90;;;16.40;99.90;;;;;;5072537;28;20355;-64
2022/05/20 06:43:28;;;;;;;19.63;14.47;;;16.50;99.90;;;;;;5073397;28;20267;-63
2022/05/20 06:45:57;;;;;;;26.50;15.87;;;16.60;99.90;;;;;;5072842;28;20209;-64
2022/05/20 06:48:25;;;;;;;22.30;16.47;;;16.70;99.90;;;;;;5071799;28;20292;-63
2022/05/20 06:50:52;;;;;;;25.57;16.63;;;16.80;99.90;;;;;;5072377;28;20711;-64
2022/05/20 06:53:20;;;;;;;28.37;19.10;;;16.80;99.90;;;;;;5072482;28;20221;-63
2022/05/20 06:55:47;;;;;;;33.13;20.53;;;16.90;99.90;;;;;;5072955;28;20209;-63
2022/05/20 06:58:14;;;;;;;32.60;21.43;;;16.90;99.90;;;;;;5072140;28;20205;-63
2022/05/20 07:00:40;;;;;;;32.43;21.13;;;16.90;99.90;;;;;;5072112;28;20577;-63
2022/05/20 07:03:07;;;;;;;35.43;22.37;;;17.00;99.90;;;;;;5072500;28;20228;-63
2022/05/20 07:05:34;;;;;;;36.50;23.63;;;17.10;99.90;;;;;;5072266;28;20733;-64
2022/05/20 07:08:00;;;;;;;34.47;23.03;;;17.20;99.90;;;;;;5072131;28;20212;-64
2022/05/20 07:10:29;;;;;;;34.33;22.73;;;17.20;99.90;;;;;;5072020;28;20209;-63
2022/05/20 07:12:55;;;;;;;35.57;22.87;;;17.30;99.90;;;;;;5072220;28;20225;-62
2022/05/20 07:15:22;;;;;;;43.27;26.00;;;17.30;99.90;;;;;;5072145;28;20212;-62
2022/05/20 07:17:49;;;;;;;39.70;26.03;;;17.20;99.90;;;;;;5071183;28;20262;-63
2022/05/20 07:20:16;;;;;;;42.87;27.13;;;17.20;99.90;;;;;;5072254;28;20204;-66
2022/05/20 07:22:42;;;;;;;43.13;28.97;;;17.30;99.90;;;;;;5071681;28;20227;-63
2022/05/20 07:25:10;;;;;;;46.63;30.93;;;17.40;99.90;;;;;;5072469;28;20205;-64
2022/05/20 07:27:38;;;;;;;46.97;30.00;;;17.60;99.90;;;;;;5071674;28;20212;-63
2022/05/20 07:30:06;;;;;;;42.37;27.87;;;17.60;99.90;;;;;;5071553;28;20209;-63
2022/05/20 07:32:33;;;;;;;43.53;28.47;;;17.70;99.90;;;;;;5071574;28;20622;-61
2022/05/20 07:35:00;;;;;;;43.10;29.07;;;17.80;99.90;;;;;;5071346;28;20224;-63
2022/05/20 07:37:26;;;;;;;51.87;31.43;;;17.80;99.90;;;;;;5071644;28;20205;-61
2022/05/20 07:39:53;;;;;;;48.30;30.53;;;17.80;99.90;;;;;;5071353;28;20201;-63
2022/05/20 07:42:21;;;;;;;43.43;29.80;;;18.00;99.90;;;;;;5071631;28;20213;-63
2022/05/20 07:44:50;;;;;;;45.13;28.23;;;18.20;99.90;;;;;;5071677;28;20209;-62
2022/05/20 07:47:17;;;;;;;43.27;26.97;;;18.30;99.90;;;;;;5071624;28;20212;-63
2022/05/20 07:49:44;;;;;;;42.53;28.87;;;18.60;99.90;;;;;;5071246;28;20205;-62
2022/05/20 07:52:13;;;;;;;40.43;27.63;;;18.70;99.90;;;;;;5070785;28;20699;-63
2022/05/20 07:54:44;;;;;;;40.90;26.00;;;18.70;99.60;;;;;;5071482;28;20217;-63
2022/05/20 07:57:15;;;;;;;34.77;23.00;;;18.90;94.30;;;;;;5070926;28;20250;-63
2022/05/20 07:59:45;;;;;;;31.77;21.30;;;19.20;99.90;;;;;;5071211;28;20792;-62
2022/05/20 08:02:14;;;;;;;32.80;21.07;;;19.40;56.90;;;;;;5071280;28;20320;-62
2022/05/20 08:04:53;;;;;;;30.50;21.67;;;19.40;43.60;;;;;;5071286;28;20209;-62
2022/05/20 08:07:21;;;;;;;29.27;20.83;;;19.20;34.40;;;;;;5071135;28;20259;-63
2022/05/20 08:09:48;;;;;;;30.20;20.67;;;19.10;57.80;;;;;;5070820;28;20212;-64
2022/05/20 08:12:15;;;;;;;35.23;20.33;;;19.30;79.50;;;;;;5071764;28;20232;-65
2022/05/20 08:14:42;;;;;;;32.37;19.70;;;19.40;42.20;;;;;;5071729;28;20566;-64
2022/05/20 08:17:08;;;;;;;30.90;19.43;;;19.50;71.80;;;;;;5071003;28;20209;-67
2022/05/20 08:19:38;;;;;;;30.77;20.60;;;19.50;45.30;;;;;;5071736;28;20201;-64
2022/05/20 08:22:06;;;;;;;28.77;20.17;;;19.50;42.80;;;;;;5072367;28;20246;-64
2022/05/20 08:24:33;;;;;;;29.77;19.30;;;19.30;42.70;;;;;;5072151;28;20213;-64
2022/05/20 08:27:00;;;;;;;33.10;22.13;;;19.10;42.10;;;;;;5071557;28;20242;-64
2022/05/20 08:29:27;;;;;;;32.03;21.13;;;19.10;51.00;;;;;;5071353;28;20258;-66
2022/05/20 08:31:53;;;;;;;30.30;20.63;;;19.30;28.90;;;;;;5070945;28;20233;-65
2022/05/20 08:34:20;;;;;;;28.87;18.83;;;19.70;95.80;;;;;;5070717;28;20209;-65
2022/05/20 08:36:48;;;;;;;31.33;20.87;;;19.70;1.00;;;;;;5070164;28;20629;-64
2022/05/20 08:39:15;;;;;;;34.90;23.00;;;19.60;6.80;;;;;;5070884;28;20235;-63
2022/05/20 08:41:45;;;;;;;30.13;21.07;;;19.60;17.50;;;;;;5070959;28;20276;-65
2022/05/20 08:44:16;;;;;;;32.50;21.67;;;19.80;20.50;;;;;;5071227;28;20212;-64
2022/05/20 08:46:43;;;;;;;38.03;21.17;;;19.90;16.60;;;;;;5070779;28;20630;-63
2022/05/20 08:49:13;;;;;;;32.67;20.20;;;20.00;25.70;;;;;;5070780;28;20706;-63
2022/05/20 08:51:41;;;;;;;30.50;21.10;;;20.00;5.90;;;;;;5070301;28;20233;-66
2022/05/20 08:54:10;;;;;;;31.67;21.03;;;20.10;12.90;;;;;;5071773;28;20606;-66
2022/05/20 08:56:38;;;;;;;31.30;20.77;;;20.10;1.00;;;;;;5070773;28;20292;-66
2022/05/20 08:59:07;;;;;;;33.50;20.93;;;20.20;1.00;;;;;;5070706;28;20259;-64
2022/05/20 09:01:36;;;;;;;37.37;22.00;;;20.10;1.00;;;;;;5070329;28;20648;-63
2022/05/20 09:04:06;;;;;;;33.67;21.70;;;20.00;1.00;;;;;;5070237;28;20828;-63
2022/05/20 09:06:37;;;;;;;32.10;20.97;;;20.10;1.00;;;;;;5069695;28;20651;-65
2022/05/20 09:09:10;;;;;;;30.20;19.83;;;20.10;1.00;;;;;;5070096;28;20262;-66
2022/05/20 09:11:38;;;;;;;30.43;20.93;;;20.10;1.00;;;;;;5070545;28;20274;-65
2022/05/20 09:17:09;;;;;;;32.50;20.37;;;20.30;1.00;;;;;;5070309;28;20208;-66
2022/05/20 09:19:35;;;;;;;30.70;20.43;;;20.40;1.00;;;;;;5070547;28;20635;-68
2022/05/20 09:22:06;;;;;;;30.13;19.33;;;20.50;1.00;;;;;;5070076;28;20225;-65
2022/05/20 09:24:39;;;;;;;29.23;18.97;;;20.60;1.00;;;;;;5070519;28;20205;-64
2022/05/20 09:27:09;;;;;;;28.10;19.53;;;20.50;1.00;;;;;;5070014;28;20209;-64
2022/05/20 09:29:40;;;;;;;29.27;18.80;;;20.60;1.00;;;;;;5070527;28;20649;-65
2022/05/20 09:32:15;;;;;;;28.80;19.07;;;20.70;99.90;;;;;;5069948;28;20236;-67
2022/05/20 09:34:43;;;;;;;26.60;18.97;;;21.00;99.90;;;;;;5070573;28;20243;-66
2022/05/20 09:37:20;;;;;;;29.23;19.90;;;21.00;99.90;;;;;;5069952;28;20261;-64
2022/05/20 09:39:50;;;;;;;29.13;20.97;;;20.70;1.00;;;;;;5070109;28;20216;-62
2022/05/20 09:42:19;;;;;;;29.13;19.77;;;20.80;18.90;;;;;;5070498;28;20221;-67
2022/05/20 09:44:48;;;;;;;30.20;20.40;;;21.00;99.90;;;;;;5069845;28;20663;-65
2022/05/20 09:47:21;;;;;;;30.87;21.47;;;21.20;1.00;;;;;;5070435;28;20259;-66
2022/05/20 09:49:52;;;;;;;27.53;19.80;;;21.10;99.90;;;;;;5072850;28;20212;-58
2022/05/20 09:52:41;;;;;;;31.07;21.03;;;20.70;1.00;;;;;;5073729;28;20225;-65
2022/05/20 09:55:23;;;;;;;33.43;21.10;;;20.70;99.90;;;;;;5074021;28;20258;-63
2022/05/20 09:57:49;;;;;;;33.30;20.97;;;20.80;1.00;;;;;;5073314;28;20254;-61
2022/05/20 10:00:21;;;;;;;28.17;18.27;;;21.00;99.90;;;;;;5073457;28;20609;-63
2022/05/20 10:02:56;;;;;;;31.07;18.43;;;21.30;81.90;;;;;;5073282;28;20279;-65
2022/05/20 10:05:29;;;;;;;31.50;19.73;;;21.80;99.90;;;;;;5073748;28;20213;-64
2022/05/20 10:08:06;;;;;;;33.43;19.57;;;22.00;1.00;;;;;;5073132;28;20204;-63
2022/05/20 10:10:53;;;;;;;29.73;20.97;;;21.90;1.00;;;;;;5073194;28;20299;-64
2022/05/20 10:13:42;;;;;;;29.63;19.90;;;22.00;99.90;;;;;;5073404;28;20687;-58
2022/05/20 10:16:17;;;;;;;30.80;19.27;;;22.10;99.90;;;;;;5073182;28;20266;-63
2022/05/20 10:18:51;;;;;;;31.93;21.63;;;22.40;1.00;;;;;;5073683;28;20208;-61
2022/05/20 10:21:28;;;;;;;29.37;19.40;;;22.50;99.90;;;;;;5072848;28;20209;-64
2022/05/20 10:24:02;;;;;;;30.30;18.70;;;22.40;99.90;;;;;;5073516;28;20259;-64
2022/05/20 10:26:36;;;;;;;26.10;17.23;;;22.30;1.00;;;;;;5072627;28;20255;-63
2022/05/20 10:34:43;;;;;;;31.00;16.90;;;22.70;1.00;;;;;;5072929;28;20208;-63
2022/05/20 10:37:20;;;;;;;29.07;18.80;;;22.90;99.90;;;;;;5072604;28;20286;-62
2022/05/20 10:40:08;;;;;;;27.47;19.27;;;22.70;1.00;;;;;;5072729;28;20269;-62
2022/05/20 10:43:02;;;;;;;31.10;18.97;;;22.40;1.00;;;;;;5073787;28;20228;-62
2022/05/20 10:48:56;;;;;;;30.33;17.50;;;22.50;1.00;;;;;;5072701;28;20184;-62
2022/05/20 10:51:42;;;;;;;28.57;18.43;;;22.80;99.90;;;;;;5009952;28;20231;-62
2022/05/20 10:54:38;;;;;;;27.23;18.03;;;23.10;85.30;;;;;;5040593;28;20753;-62
2022/05/20 10:57:28;;;;;;;27.90;18.53;;;23.40;1.00;;;;;;5052043;28;20217;-62
2022/05/20 11:00:09;;;;;;;29.37;18.93;;;23.20;99.90;;;;;;5052428;28;20205;-61
2022/05/20 11:03:08;;;;;;;29.87;18.93;;;23.20;99.90;;;;;;5051465;28;20283;-61
2022/05/20 11:05:46;;;;;;;27.63;17.73;;;23.10;99.90;;;;;;5052805;28;20205;-64
2022/05/20 11:08:26;;;;;;;31.13;18.93;;;22.90;99.90;;;;;;5052083;28;20267;-62
2022/05/20 11:11:11;;;;;;;28.40;20.13;;;23.10;99.90;;;;;;5067694;28;20204;-63
2022/05/20 11:14:01;;;;;;;33.00;18.43;;;23.20;99.90;;;;;;5071878;28;20581;-63
2022/05/20 11:16:50;;;;;;;29.83;19.07;;;23.00;1.00;;;;;;5072009;28;20216;-63
2022/05/20 11:19:34;;;;;;;31.73;19.13;;;23.00;99.90;;;;;;5071932;28;20740;-62
2022/05/20 11:22:24;;;;;;;28.47;17.53;;;23.00;1.00;;;;;;5071657;28;20229;-62
2022/05/20 11:25:14;;;;;;;27.57;18.53;;;23.10;1.00;;;;;;5072003;28;20208;-63
2022/05/20 11:28:02;;;;;;;26.27;17.83;;;23.20;99.90;;;;;;5071512;28;20251;-62
2022/05/20 11:30:44;;;;;;;28.07;18.17;;;23.40;1.00;;;;;;5072167;28;20270;-62
2022/05/20 11:33:36;;;;;;;26.80;17.53;;;23.60;25.70;;;;;;5071388;28;20578;-63
2022/05/20 11:36:15;;;;;;;29.57;19.63;;;23.80;1.00;;;;;;5071436;28;20736;-64
2022/05/20 11:39:01;;;;;;;29.60;19.20;;;24.00;99.90;;;;;;5071288;28;20205;-64
2022/05/20 11:41:36;;;;;;;30.20;18.07;;;24.20;1.00;;;;;;5071405;28;20266;-64
2022/05/20 11:44:40;;;;;;;29.70;17.73;;;24.20;99.90;;;;;;5071460;28;20204;-62
2022/05/20 11:47:25;;;;;;;29.03;19.10;;;24.40;1.00;;;;;;5039531;28;20212;-63
2022/05/20 11:50:06;;;;;;;27.17;18.03;;;24.50;99.90;;;;;;5071408;28;20239;-69
2022/05/20 11:52:48;;;;;;;25.23;17.67;;;24.40;99.90;;;;;;5070640;28;20570;-63
2022/05/20 11:55:20;;;;;;;26.47;17.80;;;24.50;1.00;;;;;;5071546;28;20204;-64
2022/05/20 11:57:51;;;;;;;28.27;16.87;;;24.50;99.90;;;;;;5071445;28;20205;-64
2022/05/20 12:00:21;;;;;;;25.97;18.17;;;24.60;99.90;;;;;;5071587;28;20212;-63
2022/05/20 12:02:51;;;;;;;26.93;16.63;;;24.50;99.90;;;;;;5070574;28;20225;-63
2022/05/20 12:05:24;;;;;;;28.23;18.27;;;24.40;99.90;;;;;;5071403;28;20309;-65
2022/05/20 12:07:51;;;;;;;27.00;17.23;;;24.30;99.90;;;;;;5071132;28;20220;-63
2022/05/20 12:10:50;;;;;;;23.30;16.77;;;24.20;99.90;;;;;;5071167;28;20907;-63
2022/05/20 12:13:21;;;;;;;23.93;15.47;;;24.40;28.80;;;;;;5065467;28;20232;-64
2022/05/20 12:15:50;;;;;;;22.37;14.70;;;24.70;99.90;;;;;;5071310;28;20221;-63
2022/05/20 12:24:30;;;;;;;21.40;15.20;;;24.90;99.90;;;;;;5071321;28;20254;-61
2022/05/20 12:26:58;;;;;;;20.30;14.13;;;25.00;99.90;;;;;;5070999;28;20258;-62
2022/05/20 12:29:46;;;;;;;22.50;14.43;;;25.00;99.90;;;;;;5071328;28;20201;-61
2022/05/20 12:32:44;;;;;;;22.00;14.97;;;25.00;99.90;;;;;;5069875;28;20315;-62
2022/05/20 12:35:15;;;;;;;19.73;14.23;;;25.00;99.90;;;;;;5037355;28;20258;-61
2022/05/20 12:38:00;;;;;;;20.17;14.03;;;24.90;99.90;;;;;;5070498;28;20205;-61
2022/05/20 12:40:50;;;;;;;23.20;14.80;;;24.70;99.90;;;;;;5070981;28;20201;-60
2022/05/20 12:43:17;;;;;;;18.40;14.13;;;24.60;99.90;;;;;;5070443;28;20225;-61
2022/05/20 12:45:51;;;;;;;19.07;13.70;;;24.40;99.90;;;;;;5071064;28;20217;-60
2022/05/20 12:48:19;;;;;;;17.63;12.40;;;24.10;99.90;;;;;;5071220;28;20254;-61
2022/05/20 12:50:59;;;;;;;17.40;13.13;;;24.00;99.90;;;;;;5070548;28;20247;-61
2022/05/20 12:53:30;;;;;;;16.77;13.43;;;23.80;99.90;;;;;;5070876;28;20319;-61
2022/05/20 12:55:57;;;;;;;14.93;12.70;;;23.70;1.00;;;;;;5070528;28;20657;-62
2022/05/20 12:58:26;;;;;;;21.77;12.40;;;23.60;1.00;;;;;;5071112;28;20220;-61
2022/05/20 13:00:55;;;;;;;28.53;14.27;;;23.60;99.90;;;;;;5069883;28;20235;-62
2022/05/20 13:03:27;;;;;;;17.77;12.80;;;23.60;99.90;;;;;;5070095;28;20263;-61
2022/05/20 13:05:57;;;;;;;18.80;13.27;;;23.60;99.90;;;;;;5070766;28;20627;-62
2022/05/20 13:08:29;;;;;;;22.17;16.63;;;23.50;7.80;;;;;;5070977;28;20212;-61
2022/05/20 13:10:56;;;;;;;23.13;17.13;;;23.20;1.00;;;;;;5070180;28;20205;-61
2022/05/20 13:13:25;;;;;;;21.83;16.27;;;23.10;99.90;;;;;;5069799;28;20225;-61
2022/05/20 13:15:55;;;;;;;22.63;16.57;;;23.10;1.00;;;;;;5070205;28;20216;-61
2022/05/20 13:18:23;;;;;;;21.93;15.83;;;23.10;1.00;;;;;;5070780;28;20208;-61
2022/05/20 13:20:53;;;;;;;20.67;15.93;;;23.00;1.00;;;;;;5070629;28;20266;-61
2022/05/20 13:23:23;;;;;;;24.67;16.30;;;22.90;1.00;;;;;;5073019;28;20236;-63
2022/05/20 13:25:51;;;;;;;23.53;18.47;;;23.00;99.90;;;;;;5074269;28;20628;-64